sensor_id;sensor_type;location;lat;lon;timestamp;temperature;humidity
25622;DHT22;13487;39.360;22.962;2022-12-18T00:00:45;13.50;99.90
25622;DHT22;13487;39.360;22.962;2022-12-18T00:03:13;13.50;99.90
25622;DHT22;13487;39.360;22.962;2022-12-18T00:05:50;13.40;99.90
25622;DHT22;13487;39.360;22.962;2022-12-18T00:08:16;13.40;99.90
25622;DHT22;13487;39.360;22.962;2022-12-18T00:10:43;13.50;99.90
25622;DHT22;13487;39.360;22.962;2022-12-18T00:13:10;13.50;99.90
25622;DHT22;13487;39.360;22.962;2022-12-18T00:15:36;13.60;99.90
25622;DHT22;13487;39.360;22.962;2022-12-18T00:18:03;13.50;99.90
25622;DHT22;13487;39.360;22.962;2022-12-18T00:20:28;13.50;99.90
25622;DHT22;13487;39.360;22.962;2022-12-18T00:22:54;13.50;99.90
25622;DHT22;13487;39.360;22.962;2022-12-18T00:25:20;13.50;99.90
25622;DHT22;13487;39.360;22.962;2022-12-18T00:27:46;13.50;99.90
25622;DHT22;13487;39.360;22.962;2022-12-18T00:30:12;13.50;99.90
25622;DHT22;13487;39.360;22.962;2022-12-18T00:32:38;13.50;99.90
25622;DHT22;13487;39.360;22.962;2022-12-18T00:35:05;13.50;99.90
25622;DHT22;13487;39.360;22.962;2022-12-18T00:37:30;13.60;99.90
25622;DHT22;13487;39.360;22.962;2022-12-18T00:39:56;13.60;99.90
25622;DHT22;13487;39.360;22.962;2022-12-18T00:42:22;13.70;99.90
25622;DHT22;13487;39.360;22.962;2022-12-18T00:45:07;13.60;99.90
25622;DHT22;13487;39.360;22.962;2022-12-18T00:47:32;13.70;99.90
25622;DHT22;13487;39.360;22.962;2022-12-18T00:49:58;13.60;99.90
25622;DHT22;13487;39.360;22.962;2022-12-18T00:52:24;13.70;99.90
25622;DHT22;13487;39.360;22.962;2022-12-18T00:54:49;13.70;99.90
25622;DHT22;13487;39.360;22.962;2022-12-18T00:57:15;13.70;99.90
25622;DHT22;13487;39.360;22.962;2022-12-18T00:59:41;13.70;99.90
25622;DHT22;13487;39.360;22.962;2022-12-18T01:02:07;13.70;99.90
25622;DHT22;13487;39.360;22.962;2022-12-18T01:04:33;13.80;99.90
25622;DHT22;13487;39.360;22.962;2022-12-18T01:06:59;13.80;99.90
25622;DHT22;13487;39.360;22.962;2022-12-18T01:09:25;13.80;99.90
25622;DHT22;13487;39.360;22.962;2022-12-18T01:11:51;13.70;99.90
25622;DHT22;13487;39.360;22.962;2022-12-18T01:14:17;13.70;99.90
25622;DHT22;13487;39.360;22.962;2022-12-18T01:16:43;13.60;99.90
25622;DHT22;13487;39.360;22.962;2022-12-18T01:19:08;13.70;99.90
25622;DHT22;13487;39.360;22.962;2022-12-18T01:21:34;13.70;99.90
25622;DHT22;13487;39.360;22.962;2022-12-18T01:24:00;13.70;99.90
25622;DHT22;13487;39.360;22.962;2022-12-18T01:26:26;13.60;99.90
25622;DHT22;13487;39.360;22.962;2022-12-18T01:28:55;13.60;99.90
25622;DHT22;13487;39.360;22.962;2022-12-18T01:31:26;13.60;99.90
25622;DHT22;13487;39.360;22.962;2022-12-18T01:33:53;13.60;99.90
25622;DHT22;13487;39.360;22.962;2022-12-18T01:36:33;13.40;99.90
25622;DHT22;13487;39.360;22.962;2022-12-18T01:39:06;13.30;99.90
25622;DHT22;13487;39.360;22.962;2022-12-18T01:41:33;13.20;99.90
25622;DHT22;13487;39.360;22.962;2022-12-18T01:47:53;13.10;99.90
25622;DHT22;13487;39.360;22.962;2022-12-18T01:50:23;13.10;99.90
25622;DHT22;13487;39.360;22.962;2022-12-18T01:53:00;13.10;99.90
25622;DHT22;13487;39.360;22.962;2022-12-18T01:55:35;13.10;99.90
25622;DHT22;13487;39.360;22.962;2022-12-18T01:58:03;13.30;99.90
25622;DHT22;13487;39.360;22.962;2022-12-18T02:00:29;13.30;99.90
25622;DHT22;13487;39.360;22.962;2022-12-18T02:02:56;13.30;99.90
25622;DHT22;13487;39.360;22.962;2022-12-18T02:05:38;13.30;99.90
25622;DHT22;13487;39.360;22.962;2022-12-18T02:08:25;13.30;99.90
25622;DHT22;13487;39.360;22.962;2022-12-18T02:11:01;13.30;99.90
25622;DHT22;13487;39.360;22.962;2022-12-18T02:13:52;13.30;99.90
25622;DHT22;13487;39.360;22.962;2022-12-18T02:16:27;13.30;99.90
25622;DHT22;13487;39.360;22.962;2022-12-18T02:19:03;13.30;99.90
25622;DHT22;13487;39.360;22.962;2022-12-18T02:22:13;13.40;99.90
25622;DHT22;13487;39.360;22.962;2022-12-18T02:27:11;13.40;99.90
25622;DHT22;13487;39.360;22.962;2022-12-18T02:29:49;13.40;99.90
25622;DHT22;13487;39.360;22.962;2022-12-18T02:32:22;13.40;99.90
25622;DHT22;13487;39.360;22.962;2022-12-18T02:34:50;13.40;99.90
25622;DHT22;13487;39.360;22.962;2022-12-18T02:37:18;13.40;99.90
25622;DHT22;13487;39.360;22.962;2022-12-18T02:39:47;13.40;99.90
25622;DHT22;13487;39.360;22.962;2022-12-18T02:42:14;13.40;99.90
25622;DHT22;13487;39.360;22.962;2022-12-18T02:44:47;13.40;99.90
25622;DHT22;13487;39.360;22.962;2022-12-18T02:47:15;13.40;99.90
25622;DHT22;13487;39.360;22.962;2022-12-18T02:52:45;13.50;99.90
25622;DHT22;13487;39.360;22.962;2022-12-18T02:58:29;13.50;99.90
25622;DHT22;13487;39.360;22.962;2022-12-18T03:03:51;13.50;99.90
25622;DHT22;13487;39.360;22.962;2022-12-18T03:06:23;13.50;99.90
25622;DHT22;13487;39.360;22.962;2022-12-18T03:08:52;13.50;99.90
25622;DHT22;13487;39.360;22.962;2022-12-18T03:11:19;13.40;99.90
25622;DHT22;13487;39.360;22.962;2022-12-18T03:14:07;13.40;99.90
25622;DHT22;13487;39.360;22.962;2022-12-18T03:16:34;13.40;99.90
25622;DHT22;13487;39.360;22.962;2022-12-18T03:19:08;13.40;99.90
25622;DHT22;13487;39.360;22.962;2022-12-18T03:21:43;13.40;99.90
25622;DHT22;13487;39.360;22.962;2022-12-18T03:24:11;13.40;99.90
25622;DHT22;13487;39.360;22.962;2022-12-18T03:26:41;13.30;99.90
25622;DHT22;13487;39.360;22.962;2022-12-18T03:29:14;13.30;99.90
25622;DHT22;13487;39.360;22.962;2022-12-18T03:31:47;13.30;99.90
25622;DHT22;13487;39.360;22.962;2022-12-18T03:34:17;13.30;99.90
25622;DHT22;13487;39.360;22.962;2022-12-18T03:36:45;13.30;99.90
25622;DHT22;13487;39.360;22.962;2022-12-18T03:39:11;13.30;99.90
25622;DHT22;13487;39.360;22.962;2022-12-18T03:41:44;13.30;99.90
25622;DHT22;13487;39.360;22.962;2022-12-18T03:46:55;13.20;99.90
25622;DHT22;13487;39.360;22.962;2022-12-18T03:49:38;13.20;99.90
25622;DHT22;13487;39.360;22.962;2022-12-18T03:52:11;13.20;99.90
25622;DHT22;13487;39.360;22.962;2022-12-18T03:54:41;13.20;99.90
25622;DHT22;13487;39.360;22.962;2022-12-18T03:57:15;13.20;99.90
25622;DHT22;13487;39.360;22.962;2022-12-18T03:59:43;13.20;99.90
25622;DHT22;13487;39.360;22.962;2022-12-18T04:02:09;13.20;99.90
25622;DHT22;13487;39.360;22.962;2022-12-18T04:04:42;13.20;99.90
25622;DHT22;13487;39.360;22.962;2022-12-18T04:07:09;13.30;99.90
25622;DHT22;13487;39.360;22.962;2022-12-18T04:09:36;13.30;99.90
25622;DHT22;13487;39.360;22.962;2022-12-18T04:12:02;13.30;99.90
25622;DHT22;13487;39.360;22.962;2022-12-18T04:14:28;13.30;99.90
25622;DHT22;13487;39.360;22.962;2022-12-18T04:16:53;13.30;99.90
25622;DHT22;13487;39.360;22.962;2022-12-18T04:19:19;13.30;99.90
25622;DHT22;13487;39.360;22.962;2022-12-18T04:21:45;13.30;99.90
25622;DHT22;13487;39.360;22.962;2022-12-18T04:24:10;13.30;99.90
25622;DHT22;13487;39.360;22.962;2022-12-18T04:26:36;13.30;99.90
25622;DHT22;13487;39.360;22.962;2022-12-18T04:29:02;13.30;99.90
25622;DHT22;13487;39.360;22.962;2022-12-18T04:31:28;13.30;99.90
25622;DHT22;13487;39.360;22.962;2022-12-18T04:33:54;13.20;99.90
25622;DHT22;13487;39.360;22.962;2022-12-18T04:36:19;13.10;99.90
25622;DHT22;13487;39.360;22.962;2022-12-18T04:38:45;13.10;99.90
25622;DHT22;13487;39.360;22.962;2022-12-18T04:41:11;13.10;99.90
25622;DHT22;13487;39.360;22.962;2022-12-18T04:43:37;13.10;99.90
25622;DHT22;13487;39.360;22.962;2022-12-18T04:46:04;13.10;99.90
25622;DHT22;13487;39.360;22.962;2022-12-18T04:48:30;13.10;99.90
25622;DHT22;13487;39.360;22.962;2022-12-18T04:50:56;13.10;99.90
25622;DHT22;13487;39.360;22.962;2022-12-18T04:53:22;13.10;99.90
25622;DHT22;13487;39.360;22.962;2022-12-18T04:55:48;13.10;99.90
25622;DHT22;13487;39.360;22.962;2022-12-18T04:58:13;13.10;99.90
25622;DHT22;13487;39.360;22.962;2022-12-18T05:00:39;13.10;99.90
25622;DHT22;13487;39.360;22.962;2022-12-18T05:03:05;13.10;99.90
25622;DHT22;13487;39.360;22.962;2022-12-18T05:05:31;13.20;99.90
25622;DHT22;13487;39.360;22.962;2022-12-18T05:07:56;13.20;99.90
25622;DHT22;13487;39.360;22.962;2022-12-18T05:10:22;13.10;99.90
25622;DHT22;13487;39.360;22.962;2022-12-18T05:12:48;13.10;99.90
25622;DHT22;13487;39.360;22.962;2022-12-18T05:15:30;13.10;99.90
25622;DHT22;13487;39.360;22.962;2022-12-18T05:17:57;13.10;99.90
25622;DHT22;13487;39.360;22.962;2022-12-18T05:20:24;13.10;99.90
25622;DHT22;13487;39.360;22.962;2022-12-18T05:22:51;13.00;99.90
25622;DHT22;13487;39.360;22.962;2022-12-18T05:25:17;13.00;99.90
25622;DHT22;13487;39.360;22.962;2022-12-18T05:27:42;13.00;99.90
25622;DHT22;13487;39.360;22.962;2022-12-18T05:30:09;13.10;99.90
25622;DHT22;13487;39.360;22.962;2022-12-18T05:32:35;13.10;99.90
25622;DHT22;13487;39.360;22.962;2022-12-18T05:35:01;13.10;99.90
25622;DHT22;13487;39.360;22.962;2022-12-18T05:37:26;13.20;99.90
25622;DHT22;13487;39.360;22.962;2022-12-18T05:39:52;13.20;99.90
25622;DHT22;13487;39.360;22.962;2022-12-18T05:42:18;13.20;99.90
25622;DHT22;13487;39.360;22.962;2022-12-18T05:44:44;13.30;99.90
25622;DHT22;13487;39.360;22.962;2022-12-18T05:47:09;13.30;99.90
25622;DHT22;13487;39.360;22.962;2022-12-18T05:49:35;13.30;99.90
25622;DHT22;13487;39.360;22.962;2022-12-18T05:52:01;13.20;99.90
25622;DHT22;13487;39.360;22.962;2022-12-18T05:54:27;13.10;99.90
25622;DHT22;13487;39.360;22.962;2022-12-18T05:56:53;13.10;99.90
25622;DHT22;13487;39.360;22.962;2022-12-18T05:59:19;13.10;99.90
25622;DHT22;13487;39.360;22.962;2022-12-18T06:01:45;13.20;99.90
25622;DHT22;13487;39.360;22.962;2022-12-18T06:04:11;13.20;99.90
25622;DHT22;13487;39.360;22.962;2022-12-18T06:06:37;13.20;99.90
25622;DHT22;13487;39.360;22.962;2022-12-18T06:09:04;13.20;99.90
25622;DHT22;13487;39.360;22.962;2022-12-18T06:11:36;13.20;99.90
25622;DHT22;13487;39.360;22.962;2022-12-18T06:14:03;13.20;99.90
25622;DHT22;13487;39.360;22.962;2022-12-18T06:16:30;13.10;99.90
25622;DHT22;13487;39.360;22.962;2022-12-18T06:18:59;13.20;99.90
25622;DHT22;13487;39.360;22.962;2022-12-18T06:21:26;13.30;99.90
25622;DHT22;13487;39.360;22.962;2022-12-18T06:23:51;13.20;99.90
25622;DHT22;13487;39.360;22.962;2022-12-18T06:26:17;13.10;99.90
25622;DHT22;13487;39.360;22.962;2022-12-18T06:28:43;13.20;99.90
25622;DHT22;13487;39.360;22.962;2022-12-18T06:31:09;13.20;99.90
25622;DHT22;13487;39.360;22.962;2022-12-18T06:33:36;13.20;99.90
25622;DHT22;13487;39.360;22.962;2022-12-18T06:36:07;13.20;99.90
25622;DHT22;13487;39.360;22.962;2022-12-18T06:38:34;13.20;99.90
25622;DHT22;13487;39.360;22.962;2022-12-18T06:41:05;13.30;99.90
25622;DHT22;13487;39.360;22.962;2022-12-18T06:43:31;13.30;99.90
25622;DHT22;13487;39.360;22.962;2022-12-18T06:46:00;13.30;99.90
25622;DHT22;13487;39.360;22.962;2022-12-18T06:48:26;13.30;99.90
25622;DHT22;13487;39.360;22.962;2022-12-18T06:50:52;13.40;99.90
25622;DHT22;13487;39.360;22.962;2022-12-18T06:53:18;13.40;99.90
25622;DHT22;13487;39.360;22.962;2022-12-18T06:55:44;13.40;99.90
25622;DHT22;13487;39.360;22.962;2022-12-18T06:58:10;13.40;99.90
25622;DHT22;13487;39.360;22.962;2022-12-18T07:00:35;13.40;99.90
25622;DHT22;13487;39.360;22.962;2022-12-18T07:03:01;13.40;99.90
25622;DHT22;13487;39.360;22.962;2022-12-18T07:05:27;13.40;99.90
25622;DHT22;13487;39.360;22.962;2022-12-18T07:07:53;13.40;99.90
25622;DHT22;13487;39.360;22.962;2022-12-18T07:10:18;13.50;99.90
25622;DHT22;13487;39.360;22.962;2022-12-18T07:12:44;13.50;99.90
25622;DHT22;13487;39.360;22.962;2022-12-18T07:15:10;13.50;99.90
25622;DHT22;13487;39.360;22.962;2022-12-18T07:17:36;13.50;99.90
25622;DHT22;13487;39.360;22.962;2022-12-18T07:20:03;13.60;99.90
25622;DHT22;13487;39.360;22.962;2022-12-18T07:22:30;13.60;99.90
25622;DHT22;13487;39.360;22.962;2022-12-18T07:24:56;13.50;99.90
25622;DHT22;13487;39.360;22.962;2022-12-18T07:27:22;13.60;99.90
25622;DHT22;13487;39.360;22.962;2022-12-18T07:29:48;13.60;99.90
25622;DHT22;13487;39.360;22.962;2022-12-18T07:32:14;13.60;99.90
25622;DHT22;13487;39.360;22.962;2022-12-18T07:34:40;13.60;99.90
25622;DHT22;13487;39.360;22.962;2022-12-18T07:37:05;13.70;99.90
25622;DHT22;13487;39.360;22.962;2022-12-18T07:39:34;13.70;99.90
25622;DHT22;13487;39.360;22.962;2022-12-18T07:41:59;13.70;99.90
25622;DHT22;13487;39.360;22.962;2022-12-18T07:44:44;13.80;99.90
25622;DHT22;13487;39.360;22.962;2022-12-18T07:47:10;13.90;99.90
25622;DHT22;13487;39.360;22.962;2022-12-18T07:49:35;13.80;99.90
25622;DHT22;13487;39.360;22.962;2022-12-18T07:52:01;13.90;99.90
25622;DHT22;13487;39.360;22.962;2022-12-18T07:54:27;13.90;99.90
25622;DHT22;13487;39.360;22.962;2022-12-18T07:56:53;13.90;99.90
25622;DHT22;13487;39.360;22.962;2022-12-18T07:59:19;13.80;99.90
25622;DHT22;13487;39.360;22.962;2022-12-18T08:01:44;13.90;99.90
25622;DHT22;13487;39.360;22.962;2022-12-18T08:04:10;13.90;99.90
25622;DHT22;13487;39.360;22.962;2022-12-18T08:06:36;13.90;99.90
25622;DHT22;13487;39.360;22.962;2022-12-18T08:09:02;13.90;99.90
25622;DHT22;13487;39.360;22.962;2022-12-18T08:11:28;14.00;99.90
25622;DHT22;13487;39.360;22.962;2022-12-18T08:13:55;14.10;99.90
25622;DHT22;13487;39.360;22.962;2022-12-18T08:16:21;14.20;99.90
25622;DHT22;13487;39.360;22.962;2022-12-18T08:18:47;14.30;99.90
25622;DHT22;13487;39.360;22.962;2022-12-18T08:21:14;14.20;99.90
25622;DHT22;13487;39.360;22.962;2022-12-18T08:23:40;14.10;99.90
25622;DHT22;13487;39.360;22.962;2022-12-18T08:26:07;14.00;99.90
25622;DHT22;13487;39.360;22.962;2022-12-18T08:28:33;14.00;99.90
25622;DHT22;13487;39.360;22.962;2022-12-18T08:31:00;14.00;99.90
25622;DHT22;13487;39.360;22.962;2022-12-18T08:33:26;14.10;99.90
25622;DHT22;13487;39.360;22.962;2022-12-18T08:35:52;14.10;99.90
25622;DHT22;13487;39.360;22.962;2022-12-18T08:38:18;14.10;99.90
25622;DHT22;13487;39.360;22.962;2022-12-18T08:40:44;14.20;99.90
25622;DHT22;13487;39.360;22.962;2022-12-18T08:43:10;14.20;99.90
25622;DHT22;13487;39.360;22.962;2022-12-18T08:45:54;14.30;99.90
25622;DHT22;13487;39.360;22.962;2022-12-18T08:48:21;14.30;99.90
25622;DHT22;13487;39.360;22.962;2022-12-18T08:50:57;14.30;99.90
25622;DHT22;13487;39.360;22.962;2022-12-18T08:53:27;14.40;99.90
25622;DHT22;13487;39.360;22.962;2022-12-18T08:55:53;14.50;99.90
25622;DHT22;13487;39.360;22.962;2022-12-18T08:58:19;14.40;99.90
25622;DHT22;13487;39.360;22.962;2022-12-18T09:00:45;14.30;99.90
25622;DHT22;13487;39.360;22.962;2022-12-18T09:03:15;14.30;99.90
25622;DHT22;13487;39.360;22.962;2022-12-18T09:05:41;14.30;99.90
25622;DHT22;13487;39.360;22.962;2022-12-18T09:08:07;14.30;99.90
25622;DHT22;13487;39.360;22.962;2022-12-18T09:10:33;14.30;99.90
25622;DHT22;13487;39.360;22.962;2022-12-18T09:12:59;14.40;99.90
25622;DHT22;13487;39.360;22.962;2022-12-18T09:15:25;14.50;99.90
25622;DHT22;13487;39.360;22.962;2022-12-18T09:17:51;14.60;99.90
25622;DHT22;13487;39.360;22.962;2022-12-18T09:20:18;14.50;99.90
25622;DHT22;13487;39.360;22.962;2022-12-18T09:22:44;14.50;99.90
25622;DHT22;13487;39.360;22.962;2022-12-18T09:25:10;14.50;99.90
25622;DHT22;13487;39.360;22.962;2022-12-18T09:27:36;14.60;99.90
25622;DHT22;13487;39.360;22.962;2022-12-18T09:30:02;14.70;99.90
25622;DHT22;13487;39.360;22.962;2022-12-18T09:32:28;14.70;99.90
25622;DHT22;13487;39.360;22.962;2022-12-18T09:34:54;14.80;99.90
25622;DHT22;13487;39.360;22.962;2022-12-18T09:37:20;15.00;99.90
25622;DHT22;13487;39.360;22.962;2022-12-18T09:39:45;15.10;99.90
25622;DHT22;13487;39.360;22.962;2022-12-18T09:42:21;15.10;99.90
25622;DHT22;13487;39.360;22.962;2022-12-18T09:44:53;14.90;99.90
25622;DHT22;13487;39.360;22.962;2022-12-18T09:47:27;14.90;99.90
25622;DHT22;13487;39.360;22.962;2022-12-18T09:50:01;14.90;99.90
25622;DHT22;13487;39.360;22.962;2022-12-18T09:57:51;15.50;99.90
25622;DHT22;13487;39.360;22.962;2022-12-18T10:00:24;15.70;99.90
25622;DHT22;13487;39.360;22.962;2022-12-18T10:03:00;15.50;99.90
25622;DHT22;13487;39.360;22.962;2022-12-18T10:10:49;15.30;99.90
25622;DHT22;13487;39.360;22.962;2022-12-18T10:16:41;15.30;99.90
25622;DHT22;13487;39.360;22.962;2022-12-18T10:19:56;15.40;99.90
25622;DHT22;13487;39.360;22.962;2022-12-18T10:26:19;15.40;99.90
25622;DHT22;13487;39.360;22.962;2022-12-18T10:28:15;15.60;99.90
25622;DHT22;13487;39.360;22.962;2022-12-18T10:30:42;15.50;99.90
25622;DHT22;13487;39.360;22.962;2022-12-18T10:33:23;15.50;99.90
25622;DHT22;13487;39.360;22.962;2022-12-18T10:35:53;15.50;99.90
25622;DHT22;13487;39.360;22.962;2022-12-18T10:38:28;15.50;99.90
25622;DHT22;13487;39.360;22.962;2022-12-18T10:41:06;15.50;99.90
25622;DHT22;13487;39.360;22.962;2022-12-18T10:43:38;15.50;99.90
25622;DHT22;13487;39.360;22.962;2022-12-18T10:48:56;15.60;99.90
25622;DHT22;13487;39.360;22.962;2022-12-18T10:51:33;15.70;99.90
25622;DHT22;13487;39.360;22.962;2022-12-18T10:54:19;15.80;99.90
25622;DHT22;13487;39.360;22.962;2022-12-18T10:56:46;15.70;99.90
25622;DHT22;13487;39.360;22.962;2022-12-18T10:59:15;15.80;99.90
25622;DHT22;13487;39.360;22.962;2022-12-18T11:01:49;15.80;99.90
25622;DHT22;13487;39.360;22.962;2022-12-18T11:04:24;15.80;99.90
25622;DHT22;13487;39.360;22.962;2022-12-18T11:07:06;15.90;99.90
25622;DHT22;13487;39.360;22.962;2022-12-18T11:09:33;16.00;99.90
25622;DHT22;13487;39.360;22.962;2022-12-18T11:12:02;16.00;99.90
25622;DHT22;13487;39.360;22.962;2022-12-18T11:14:49;15.90;99.90
25622;DHT22;13487;39.360;22.962;2022-12-18T11:17:33;15.90;99.90
25622;DHT22;13487;39.360;22.962;2022-12-18T11:20:03;15.80;99.90
25622;DHT22;13487;39.360;22.962;2022-12-18T11:22:31;15.90;99.90
25622;DHT22;13487;39.360;22.962;2022-12-18T11:27:29;15.70;99.90
25622;DHT22;13487;39.360;22.962;2022-12-18T11:30:08;15.90;99.90
25622;DHT22;13487;39.360;22.962;2022-12-18T11:32:39;16.00;99.90
25622;DHT22;13487;39.360;22.962;2022-12-18T11:37:56;16.00;99.90
25622;DHT22;13487;39.360;22.962;2022-12-18T11:40:39;16.10;99.90
25622;DHT22;13487;39.360;22.962;2022-12-18T11:43:25;16.00;99.90
25622;DHT22;13487;39.360;22.962;2022-12-18T11:46:08;15.90;99.90
25622;DHT22;13487;39.360;22.962;2022-12-18T11:48:54;15.90;99.90
25622;DHT22;13487;39.360;22.962;2022-12-18T11:51:56;15.90;99.90
25622;DHT22;13487;39.360;22.962;2022-12-18T11:54:19;15.90;99.90
25622;DHT22;13487;39.360;22.962;2022-12-18T11:56:56;15.70;99.90
25622;DHT22;13487;39.360;22.962;2022-12-18T12:08:12;15.60;99.90
25622;DHT22;13487;39.360;22.962;2022-12-18T12:10:53;15.60;99.90
25622;DHT22;13487;39.360;22.962;2022-12-18T12:16:18;15.80;99.90
25622;DHT22;13487;39.360;22.962;2022-12-18T12:19:04;15.80;99.90
25622;DHT22;13487;39.360;22.962;2022-12-18T12:29:57;15.70;99.90
25622;DHT22;13487;39.360;22.962;2022-12-18T12:32:30;15.60;99.90
25622;DHT22;13487;39.360;22.962;2022-12-18T12:40:23;15.60;99.90
25622;DHT22;13487;39.360;22.962;2022-12-18T12:42:56;15.50;99.90
25622;DHT22;13487;39.360;22.962;2022-12-18T12:48:41;15.50;99.90
25622;DHT22;13487;39.360;22.962;2022-12-18T12:53:40;15.50;99.90
25622;DHT22;13487;39.360;22.962;2022-12-18T12:56:09;15.50;99.90
25622;DHT22;13487;39.360;22.962;2022-12-18T12:59:02;15.50;99.90
25622;DHT22;13487;39.360;22.962;2022-12-18T13:01:54;15.50;99.90
25622;DHT22;13487;39.360;22.962;2022-12-18T13:04:48;15.60;99.90
25622;DHT22;13487;39.360;22.962;2022-12-18T13:07:23;15.50;99.90
25622;DHT22;13487;39.360;22.962;2022-12-18T13:18:20;15.60;99.90
25622;DHT22;13487;39.360;22.962;2022-12-18T13:25:56;15.50;99.90
25622;DHT22;13487;39.360;22.962;2022-12-18T13:31:07;15.50;99.90
25622;DHT22;13487;39.360;22.962;2022-12-18T13:39:15;15.60;99.90
25622;DHT22;13487;39.360;22.962;2022-12-18T13:44:41;15.50;99.90
25622;DHT22;13487;39.360;22.962;2022-12-18T13:49:51;15.60;99.90
25622;DHT22;13487;39.360;22.962;2022-12-18T13:52:25;15.60;99.90
25622;DHT22;13487;39.360;22.962;2022-12-18T13:54:59;15.60;99.90
25622;DHT22;13487;39.360;22.962;2022-12-18T13:57:31;15.70;99.90
25622;DHT22;13487;39.360;22.962;2022-12-18T13:59:58;15.70;99.90
25622;DHT22;13487;39.360;22.962;2022-12-18T14:02:26;15.70;99.90
25622;DHT22;13487;39.360;22.962;2022-12-18T14:04:53;15.70;99.90
25622;DHT22;13487;39.360;22.962;2022-12-18T14:07:24;15.80;99.90
25622;DHT22;13487;39.360;22.962;2022-12-18T14:09:55;15.90;99.90
25622;DHT22;13487;39.360;22.962;2022-12-18T14:12:28;16.00;99.90
25622;DHT22;13487;39.360;22.962;2022-12-18T14:17:59;16.00;99.90
25622;DHT22;13487;39.360;22.962;2022-12-18T14:20:27;16.00;99.90
25622;DHT22;13487;39.360;22.962;2022-12-18T14:22:54;16.00;99.90
25622;DHT22;13487;39.360;22.962;2022-12-18T14:25:25;15.90;99.90
25622;DHT22;13487;39.360;22.962;2022-12-18T14:27:59;15.80;99.90
25622;DHT22;13487;39.360;22.962;2022-12-18T14:30:30;15.70;99.90
25622;DHT22;13487;39.360;22.962;2022-12-18T14:33:05;15.60;99.90
25622;DHT22;13487;39.360;22.962;2022-12-18T14:35:33;15.60;99.90
25622;DHT22;13487;39.360;22.962;2022-12-18T14:40:43;15.40;99.90
25622;DHT22;13487;39.360;22.962;2022-12-18T14:43:13;15.40;99.90
25622;DHT22;13487;39.360;22.962;2022-12-18T14:45:45;15.50;99.90
25622;DHT22;13487;39.360;22.962;2022-12-18T14:50:37;15.30;99.90
25622;DHT22;13487;39.360;22.962;2022-12-18T14:53:03;15.40;99.90
25622;DHT22;13487;39.360;22.962;2022-12-18T14:55:29;15.30;99.90
25622;DHT22;13487;39.360;22.962;2022-12-18T14:57:56;15.20;99.90
25622;DHT22;13487;39.360;22.962;2022-12-18T15:00:24;15.20;99.90
25622;DHT22;13487;39.360;22.962;2022-12-18T15:02:54;15.30;99.90
25622;DHT22;13487;39.360;22.962;2022-12-18T15:05:28;15.20;99.90
25622;DHT22;13487;39.360;22.962;2022-12-18T15:07:57;15.20;99.90
25622;DHT22;13487;39.360;22.962;2022-12-18T15:10:29;15.10;99.90
25622;DHT22;13487;39.360;22.962;2022-12-18T15:17:59;14.90;99.90
25622;DHT22;13487;39.360;22.962;2022-12-18T15:20:25;15.00;99.90
25622;DHT22;13487;39.360;22.962;2022-12-18T15:22:51;14.90;99.90
25622;DHT22;13487;39.360;22.962;2022-12-18T15:25:34;14.90;99.90
25622;DHT22;13487;39.360;22.962;2022-12-18T15:28:02;14.90;99.90
25622;DHT22;13487;39.360;22.962;2022-12-18T15:30:28;15.10;99.90
25622;DHT22;13487;39.360;22.962;2022-12-18T15:33:23;15.20;99.90
25622;DHT22;13487;39.360;22.962;2022-12-18T15:36:00;15.20;99.90
25622;DHT22;13487;39.360;22.962;2022-12-18T15:38:27;15.00;99.90
25622;DHT22;13487;39.360;22.962;2022-12-18T15:40:53;14.80;99.90
25622;DHT22;13487;39.360;22.962;2022-12-18T15:43:23;14.70;99.90
25622;DHT22;13487;39.360;22.962;2022-12-18T15:46:13;14.60;99.90
25622;DHT22;13487;39.360;22.962;2022-12-18T15:48:44;14.70;99.90
25622;DHT22;13487;39.360;22.962;2022-12-18T15:51:34;14.70;99.90
25622;DHT22;13487;39.360;22.962;2022-12-18T15:54:08;14.70;99.90
25622;DHT22;13487;39.360;22.962;2022-12-18T15:56:35;14.70;99.90
25622;DHT22;13487;39.360;22.962;2022-12-18T15:59:20;14.60;99.90
25622;DHT22;13487;39.360;22.962;2022-12-18T16:01:48;14.60;99.90
25622;DHT22;13487;39.360;22.962;2022-12-18T16:04:16;14.50;99.90
25622;DHT22;13487;39.360;22.962;2022-12-18T16:06:43;14.50;99.90
25622;DHT22;13487;39.360;22.962;2022-12-18T16:09:09;14.50;99.90
25622;DHT22;13487;39.360;22.962;2022-12-18T16:11:36;14.50;99.90
25622;DHT22;13487;39.360;22.962;2022-12-18T16:14:25;14.50;99.90
25622;DHT22;13487;39.360;22.962;2022-12-18T16:16:58;14.40;99.90
25622;DHT22;13487;39.360;22.962;2022-12-18T16:19:25;14.40;99.90
25622;DHT22;13487;39.360;22.962;2022-12-18T16:21:52;14.50;99.90
25622;DHT22;13487;39.360;22.962;2022-12-18T16:24:22;14.50;99.90
25622;DHT22;13487;39.360;22.962;2022-12-18T16:26:49;14.40;99.90
25622;DHT22;13487;39.360;22.962;2022-12-18T16:29:17;14.40;99.90
25622;DHT22;13487;39.360;22.962;2022-12-18T16:31:43;14.40;99.90
25622;DHT22;13487;39.360;22.962;2022-12-18T16:34:21;14.40;99.90
25622;DHT22;13487;39.360;22.962;2022-12-18T16:36:50;14.50;99.90
25622;DHT22;13487;39.360;22.962;2022-12-18T16:39:17;14.50;99.90
25622;DHT22;13487;39.360;22.962;2022-12-18T16:41:43;14.50;99.90
25622;DHT22;13487;39.360;22.962;2022-12-18T16:44:09;14.50;99.90
25622;DHT22;13487;39.360;22.962;2022-12-18T16:46:36;14.60;99.90
25622;DHT22;13487;39.360;22.962;2022-12-18T16:49:02;14.70;99.90
25622;DHT22;13487;39.360;22.962;2022-12-18T16:51:28;14.70;99.90
25622;DHT22;13487;39.360;22.962;2022-12-18T16:53:55;14.70;99.90
25622;DHT22;13487;39.360;22.962;2022-12-18T16:56:21;14.70;99.90
25622;DHT22;13487;39.360;22.962;2022-12-18T16:58:51;14.70;99.90
25622;DHT22;13487;39.360;22.962;2022-12-18T17:01:17;14.60;99.90
25622;DHT22;13487;39.360;22.962;2022-12-18T17:03:42;14.80;99.90
25622;DHT22;13487;39.360;22.962;2022-12-18T17:06:08;14.90;99.90
25622;DHT22;13487;39.360;22.962;2022-12-18T17:08:34;14.80;99.90
25622;DHT22;13487;39.360;22.962;2022-12-18T17:11:05;14.70;99.90
25622;DHT22;13487;39.360;22.962;2022-12-18T17:13:31;14.60;99.90
25622;DHT22;13487;39.360;22.962;2022-12-18T17:16:04;14.60;99.90
25622;DHT22;13487;39.360;22.962;2022-12-18T17:18:31;14.60;99.90
25622;DHT22;13487;39.360;22.962;2022-12-18T17:21:01;14.60;99.90
25622;DHT22;13487;39.360;22.962;2022-12-18T17:23:28;14.50;99.90
25622;DHT22;13487;39.360;22.962;2022-12-18T17:25:58;14.50;99.90